Startpagina
METAR-TAF:

METAR-TAF

Vliegvelden :

Liege Airport

Luik, België

breedte: 50-39N, lengte: 005-27E, hoogte: 186 m

Actueel weer

Dit bericht is 24 minuten geleden gemaakt, om 00:20 UTC
Wind 2 kt uit het noorden
Temperatuur 8°C
Vochtigheid 81%
Druk 1026 hPa
Zicht 10 km of meer
geen wolken onder 1500 m en geen cumulonimbus

METAR: EBLG 180020Z 36002KT CAVOK 08/05 Q1026 NOSIG

Tijdstip: 02:44 (00:44 UTC)

Verwachting

Dit bericht is 1 uur en het 24 minuten geleden gemaakt, om 23:20 UTC
Verwachting geldig van 18 om 00 UTC tot 19 om 06 UTC
Wind 4 kt uit het noorden
Zicht 10 km of meer
geen wolken onder 1500 m en geen cumulonimbus
Kans 30% :
Tijdelijke
van 18 om 02 UTC tot 18 om 06 UTC
Zicht: 3500 m
nevel

TAF: EBLG 172320Z 1800/1906 35004KT CAVOK PROB30 TEMPO 1802/1806 3500 BR

Waarnemingen en weersverwachtingen van meer dan 4000 vliegvelden (METAR en TAF).

De beschikbare stations zijn de gele en rode punten op de kaart.

Ga met uw muis naar het station om de naam te zien.

Klik dan om waarnemingen en weersverwachtingen te zien.

kaart wijzigen: klik op de groene knoppen met een zwart kruis om in te zoomen, op de groene knop met een streepje om uit te zoomen of op de groene pijlen voor aangrenzende kaarten.


METAR-TAF: